Time;durP1;ratioP1;P1;durP2;ratioP2;P2;SDS_P1;SDS_P2;PMS_P1;PMS_P2;Temp;Humidity;BMP_temperature;BMP_pressure;BME280_temperature;BME280_humidity;BME280_pressure;Samples;Min_cycle;Max_cycle;Signal;HPM_P1;HPM_P2
2023/05/11 00:01:11;;;;;;;0.50;0.40;;;12.50;99.90;;;;;;5056269;28;20500;-79
2023/05/11 00:03:38;;;;;;;0.50;0.40;;;12.60;99.90;;;;;;5053916;28;20466;-79
2023/05/11 00:06:05;;;;;;;0.50;0.40;;;12.60;99.90;;;;;;5055227;28;20474;-78
2023/05/11 00:08:32;;;;;;;1.47;1.37;;;12.60;99.90;;;;;;5057674;28;20820;-79
2023/05/11 00:11:00;;;;;;;0.50;0.40;;;12.60;99.90;;;;;;5057803;28;20516;-79
2023/05/11 00:13:27;;;;;;;0.60;0.40;;;12.60;99.90;;;;;;5046016;28;20437;-79
2023/05/11 00:15:54;;;;;;;2.00;1.90;;;12.60;99.90;;;;;;5054082;28;20448;-79
2023/05/11 00:18:21;;;;;;;0.60;0.40;;;12.60;99.90;;;;;;5056504;28;20540;-79
2023/05/11 00:20:48;;;;;;;3.23;2.40;;;12.60;99.90;;;;;;5056900;28;20556;-80
2023/05/11 00:23:15;;;;;;;0.50;0.40;;;12.50;99.90;;;;;;5056049;28;20469;-79
2023/05/11 00:25:42;;;;;;;1.70;1.60;;;12.60;99.90;;;;;;5054092;28;20507;-80
2023/05/11 00:28:10;;;;;;;0.50;0.40;;;12.60;99.90;;;;;;5054008;28;20526;-78
2023/05/11 00:30:37;;;;;;;0.80;0.80;;;12.70;99.90;;;;;;5057762;28;20429;-79
2023/05/11 00:33:03;;;;;;;1.00;0.90;;;12.70;99.90;;;;;;5056610;28;20465;-77
2023/05/11 00:35:31;;;;;;;0.87;0.87;;;12.70;99.90;;;;;;5054009;28;20473;-79
2023/05/11 00:37:58;;;;;;;0.83;0.83;;;12.60;99.90;;;;;;5054191;28;20438;-79
2023/05/11 00:40:25;;;;;;;0.50;0.50;;;12.70;99.90;;;;;;5056499;28;20572;-79
2023/05/11 00:42:52;;;;;;;5.80;5.10;;;12.70;99.90;;;;;;5056645;28;20445;-79
2023/05/11 00:45:20;;;;;;;3.03;2.90;;;12.70;99.90;;;;;;5054950;28;20446;-79
2023/05/11 00:47:47;;;;;;;2.77;2.67;;;12.70;99.90;;;;;;5053316;28;20445;-79
2023/05/11 00:50:14;;;;;;;1.63;1.63;;;12.70;99.90;;;;;;5054553;28;20494;-79
2023/05/11 00:52:41;;;;;;;0.50;0.40;;;12.70;99.90;;;;;;5057093;28;20445;-79
2023/05/11 00:55:10;;;;;;;0.83;0.83;;;12.70;99.90;;;;;;5056467;28;20856;-79
2023/05/11 00:57:38;;;;;;;0.50;0.43;;;12.70;99.90;;;;;;5053969;28;20469;-79
2023/05/11 01:00:06;;;;;;;4.10;1.53;;;12.70;99.90;;;;;;5053434;28;20473;-76
2023/05/11 01:02:34;;;;;;;1.77;1.03;;;12.70;99.90;;;;;;5056351;28;20437;-79
2023/05/11 01:05:01;;;;;;;0.50;0.40;;;12.60;99.90;;;;;;5058046;28;20979;-79
2023/05/11 01:07:34;;;;;;;3.47;3.30;;;12.60;99.90;;;;;;5055936;28;20866;-79
2023/05/11 01:10:08;;;;;;;7.67;3.67;;;12.60;99.90;;;;;;5056701;28;20470;-79
2023/05/11 01:12:46;;;;;;;9.13;8.13;;;12.60;99.90;;;;;;5044088;28;20504;-79
2023/05/11 01:15:18;;;;;;;3.00;2.80;;;12.60;99.90;;;;;;5053358;28;20433;-79
2023/05/11 01:17:53;;;;;;;2.17;2.03;;;12.50;99.90;;;;;;5055803;28;20451;-79
2023/05/11 01:20:25;;;;;;;0.50;0.40;;;12.50;99.90;;;;;;5053476;28;20500;-79
2023/05/11 01:23:13;;;;;;;0.50;0.40;;;12.40;99.90;;;;;;5052324;28;20438;-80
2023/05/11 01:26:05;;;;;;;0.50;0.40;;;12.50;99.90;;;;;;5045322;28;20442;-80
2023/05/11 01:28:52;;;;;;;0.50;0.40;;;12.50;99.90;;;;;;5044615;28;20464;-79
2023/05/11 01:31:21;;;;;;;4.00;3.30;;;12.50;99.90;;;;;;5053838;28;20795;-80
2023/05/11 01:33:55;;;;;;;5.13;4.33;;;12.60;99.90;;;;;;5055792;28;20488;-75
2023/05/11 01:36:25;;;;;;;1.03;1.03;;;12.60;99.90;;;;;;5055882;28;20457;-78
2023/05/11 01:38:54;;;;;;;0.80;0.80;;;12.60;99.90;;;;;;5055770;28;20556;-79
2023/05/11 01:41:23;;;;;;;3.13;2.93;;;12.60;99.90;;;;;;5053485;28;20564;-78
2023/05/11 01:43:54;;;;;;;4.87;4.47;;;12.60;99.90;;;;;;5052364;28;20930;-77
2023/05/11 01:46:26;;;;;;;9.73;8.90;;;12.60;99.90;;;;;;5054226;28;20442;-79
2023/05/11 01:48:56;;;;;;;3.13;2.93;;;12.60;99.90;;;;;;5054692;28;20465;-79
2023/05/11 01:51:25;;;;;;;10.43;4.30;;;12.60;99.90;;;;;;5046204;28;20540;-78
2023/05/11 01:53:54;;;;;;;3.30;2.43;;;12.60;99.90;;;;;;5055898;28;20500;-78
2023/05/11 01:56:22;;;;;;;1.90;1.80;;;12.60;99.90;;;;;;5053177;28;20513;-79
2023/05/11 01:58:50;;;;;;;4.10;2.70;;;12.60;99.90;;;;;;5051317;28;20518;-79
2023/05/11 02:01:19;;;;;;;1.63;1.53;;;12.50;99.90;;;;;;5052187;28;20568;-79
2023/05/11 02:03:49;;;;;;;6.20;3.43;;;12.50;99.90;;;;;;5053960;28;20524;-79
2023/05/11 02:06:17;;;;;;;3.27;3.07;;;12.50;99.90;;;;;;5053466;28;20433;-79
2023/05/11 02:08:46;;;;;;;0.93;0.93;;;12.60;99.90;;;;;;5050514;28;20461;-78
2023/05/11 02:11:15;;;;;;;3.50;3.20;;;12.60;99.90;;;;;;5051573;28;20967;-78
2023/05/11 02:13:44;;;;;;;3.07;2.97;;;12.60;99.90;;;;;;5053804;28;20891;-79
2023/05/11 02:16:11;;;;;;;1.87;1.80;;;12.60;99.90;;;;;;5053923;28;20477;-78
2023/05/11 02:18:40;;;;;;;0.80;0.80;;;12.60;99.90;;;;;;5054475;28;20448;-79
2023/05/11 02:21:10;;;;;;;1.83;1.73;;;12.60;99.90;;;;;;5056415;28;20552;-80
2023/05/11 02:23:38;;;;;;;13.60;5.00;;;12.60;99.90;;;;;;5032144;28;20501;-79
2023/05/11 02:26:07;;;;;;;7.13;2.33;;;12.60;99.90;;;;;;5046873;28;20929;-79
2023/05/11 02:28:34;;;;;;;6.53;6.03;;;12.60;99.90;;;;;;5047209;28;20461;-79
2023/05/11 02:31:07;;;;;;;2.83;2.60;;;12.60;99.90;;;;;;5057190;28;20473;-80
2023/05/11 02:33:39;;;;;;;23.97;2.87;;;12.60;99.90;;;;;;5043642;28;20521;-79
2023/05/11 02:36:07;;;;;;;1.13;1.13;;;12.60;99.90;;;;;;5051647;28;20986;-79
2023/05/11 02:38:35;;;;;;;5.70;3.27;;;12.60;99.90;;;;;;5055715;28;20487;-80
2023/05/11 02:41:05;;;;;;;3.70;2.83;;;12.60;99.90;;;;;;5055523;28;21008;-80
2023/05/11 02:43:35;;;;;;;3.10;2.90;;;12.60;99.90;;;;;;5054524;28;20654;-80
2023/05/11 02:46:06;;;;;;;3.73;3.53;;;12.60;99.90;;;;;;5056074;28;20532;-80
2023/05/11 02:48:38;;;;;;;2.60;2.40;;;12.60;99.90;;;;;;5050933;28;20472;-79
2023/05/11 02:51:08;;;;;;;4.00;3.80;;;12.50;99.90;;;;;;5051498;28;20430;-79
2023/05/11 02:53:37;;;;;;;6.80;5.20;;;12.60;99.90;;;;;;5046833;28;20539;-80
2023/05/11 02:56:05;;;;;;;9.40;4.63;;;12.60;99.90;;;;;;5055903;28;20452;-80
2023/05/11 02:58:32;;;;;;;12.53;7.30;;;12.50;99.90;;;;;;5059084;28;20833;-80
2023/05/11 03:01:00;;;;;;;11.73;6.87;;;12.40;99.90;;;;;;5048871;28;20508;-78
2023/05/11 03:03:27;;;;;;;0.50;0.50;;;12.40;99.90;;;;;;5061714;28;20504;-79
2023/05/11 03:05:54;;;;;;;7.20;4.63;;;12.40;99.90;;;;;;5055083;28;20492;-80
2023/05/11 03:08:21;;;;;;;4.67;1.70;;;12.40;99.90;;;;;;5049905;28;20463;-79
2023/05/11 03:10:51;;;;;;;0.97;0.97;;;12.40;99.90;;;;;;5052469;28;20439;-79
2023/05/11 03:13:19;;;;;;;4.93;3.50;;;12.40;99.90;;;;;;5046940;28;20468;-80
2023/05/11 03:15:47;;;;;;;5.63;3.83;;;12.40;99.90;;;;;;5054014;28;20524;-78
2023/05/11 03:18:15;;;;;;;0.53;0.50;;;12.40;99.90;;;;;;5037953;28;20493;-79
2023/05/11 03:20:44;;;;;;;0.50;0.40;;;12.40;99.90;;;;;;5032738;28;20504;-79
2023/05/11 03:23:12;;;;;;;0.50;0.40;;;12.40;99.90;;;;;;5040747;28;20450;-79
2023/05/11 03:25:41;;;;;;;9.03;8.10;;;12.40;99.90;;;;;;5032387;28;20441;-78
2023/05/11 03:28:09;;;;;;;0.50;0.40;;;12.40;99.90;;;;;;5040970;28;20571;-79
2023/05/11 03:30:37;;;;;;;1.13;1.13;;;12.30;99.90;;;;;;5052506;28;20429;-77
2023/05/11 03:33:04;;;;;;;7.80;2.43;;;12.30;99.90;;;;;;5037263;28;20446;-79
2023/05/11 03:35:34;;;;;;;0.50;0.40;;;12.30;99.90;;;;;;5032559;28;20460;-79
2023/05/11 03:38:01;;;;;;;2.70;2.60;;;12.30;99.90;;;;;;5039492;28;20471;-78
2023/05/11 03:40:30;;;;;;;0.57;0.57;;;12.20;99.90;;;;;;5053892;28;20445;-81
2023/05/11 03:42:59;;;;;;;0.50;0.40;;;12.20;99.90;;;;;;5038476;28;20445;-80
2023/05/11 03:45:28;;;;;;;0.80;0.80;;;12.20;99.90;;;;;;5039805;28;20442;-80
2023/05/11 03:47:57;;;;;;;0.50;0.40;;;12.10;99.90;;;;;;5037662;28;20450;-80
2023/05/11 03:50:24;;;;;;;0.50;0.40;;;12.20;99.90;;;;;;5044116;28;20533;-78
2023/05/11 03:52:52;;;;;;;0.50;0.30;;;12.20;99.90;;;;;;5046370;28;20521;-78
2023/05/11 03:55:19;;;;;;;0.50;0.40;;;12.20;99.90;;;;;;5054197;28;20441;-79
2023/05/11 03:57:46;;;;;;;1.93;1.83;;;12.30;99.90;;;;;;5060371;28;20465;-80
2023/05/11 04:00:13;;;;;;;0.50;0.40;;;12.40;99.90;;;;;;5061528;28;20836;-81
2023/05/11 04:02:41;;;;;;;0.50;0.33;;;12.40;99.90;;;;;;5030982;28;20845;-80
2023/05/11 04:05:10;;;;;;;0.60;0.50;;;12.50;99.90;;;;;;5036441;28;20465;-80
2023/05/11 04:07:38;;;;;;;0.83;0.83;;;12.50;99.90;;;;;;5041230;28;20438;-79
2023/05/11 04:10:06;;;;;;;0.50;0.40;;;12.60;99.90;;;;;;5037072;28;20458;-78
2023/05/11 04:12:33;;;;;;;1.07;1.03;;;12.50;99.90;;;;;;5049908;28;20464;-80
2023/05/11 04:15:00;;;;;;;0.50;0.40;;;12.50;99.90;;;;;;5053123;28;20444;-82
2023/05/11 04:17:27;;;;;;;0.50;0.40;;;12.50;99.90;;;;;;5037507;28;20472;-80
2023/05/11 04:19:55;;;;;;;0.50;0.40;;;12.40;99.90;;;;;;5035857;28;20913;-80
2023/05/11 04:22:22;;;;;;;4.30;0.60;;;12.40;99.90;;;;;;5034978;28;20488;-80
2023/05/11 04:24:49;;;;;;;0.50;0.40;;;12.50;99.90;;;;;;5048242;28;20438;-82
2023/05/11 04:27:16;;;;;;;0.50;0.40;;;12.60;99.90;;;;;;5055064;28;20508;-81
2023/05/11 04:29:43;;;;;;;0.60;0.40;;;12.70;99.90;;;;;;5055623;28;20482;-82
2023/05/11 04:32:10;;;;;;;0.50;0.40;;;12.70;99.90;;;;;;5055664;28;20487;-81
2023/05/11 04:34:37;;;;;;;0.50;0.40;;;12.80;99.90;;;;;;5054868;28;20524;-81
2023/05/11 04:37:06;;;;;;;0.50;0.40;;;12.80;99.90;;;;;;5040381;28;20444;-80
2023/05/11 04:39:33;;;;;;;0.93;0.93;;;12.80;99.90;;;;;;5034963;28;20470;-81
2023/05/11 04:42:00;;;;;;;0.50;0.40;;;12.90;99.90;;;;;;5049208;28;20477;-81
2023/05/11 04:44:27;;;;;;;0.50;0.30;;;12.90;99.90;;;;;;5054815;28;20445;-81
2023/05/11 04:46:55;;;;;;;0.50;0.40;;;12.90;99.90;;;;;;5055472;28;20439;-78
2023/05/11 04:49:22;;;;;;;0.50;0.37;;;13.00;99.90;;;;;;5055843;28;20495;-81
2023/05/11 04:51:48;;;;;;;2.10;1.27;;;13.00;99.90;;;;;;5056032;28;20432;-78
2023/05/11 04:54:17;;;;;;;0.50;0.40;;;13.10;99.90;;;;;;5055737;28;20469;-82
2023/05/11 04:56:43;;;;;;;1.33;0.80;;;13.10;99.90;;;;;;5057223;28;20512;-82
2023/05/11 04:59:10;;;;;;;0.50;0.40;;;13.20;99.90;;;;;;5057644;28;20490;-80
2023/05/11 05:01:37;;;;;;;1.53;1.53;;;13.20;99.90;;;;;;5055657;28;20485;-83
2023/05/11 05:04:04;;;;;;;0.97;0.97;;;13.30;99.90;;;;;;5056434;28;20612;-82
2023/05/11 05:06:32;;;;;;;0.50;0.40;;;13.30;99.90;;;;;;5056631;28;20448;-80
2023/05/11 05:08:59;;;;;;;0.50;0.40;;;13.30;99.90;;;;;;5059027;28;20461;-81
2023/05/11 05:11:27;;;;;;;0.50;0.40;;;13.40;99.90;;;;;;5058058;28;20952;-80
2023/05/11 05:13:54;;;;;;;0.50;0.50;;;13.40;99.90;;;;;;5059944;28;20481;-81
2023/05/11 05:16:21;;;;;;;1.00;0.90;;;13.30;99.90;;;;;;5055146;28;20984;-80
2023/05/11 05:18:48;;;;;;;0.50;0.40;;;13.50;99.90;;;;;;5056185;28;20540;-80
2023/05/11 05:21:15;;;;;;;0.50;0.30;;;13.60;99.90;;;;;;5055028;28;20481;-81
2023/05/11 05:23:42;;;;;;;0.50;0.30;;;13.60;99.90;;;;;;5055149;28;21008;-80
2023/05/11 05:26:09;;;;;;;9.60;3.80;;;13.60;99.90;;;;;;5055878;28;20619;-79
2023/05/11 05:28:37;;;;;;;0.50;0.40;;;13.60;99.90;;;;;;5055591;28;20465;-80
2023/05/11 05:31:05;;;;;;;0.97;0.97;;;13.60;99.90;;;;;;5055883;28;20900;-80
2023/05/11 05:33:31;;;;;;;0.50;0.40;;;13.50;99.90;;;;;;5055981;28;20441;-80
2023/05/11 05:35:58;;;;;;;0.50;0.30;;;13.50;99.90;;;;;;5042930;28;20466;-80
2023/05/11 05:38:25;;;;;;;1.83;1.73;;;13.50;99.90;;;;;;5035525;28;20466;-80
2023/05/11 05:40:52;;;;;;;6.53;3.23;;;13.60;99.90;;;;;;5035178;28;20442;-82
2023/05/11 05:43:19;;;;;;;7.70;4.60;;;13.60;99.90;;;;;;5034504;28;20482;-80
2023/05/11 05:45:47;;;;;;;0.93;0.90;;;13.50;99.90;;;;;;5046179;28;20524;-80
2023/05/11 05:48:14;;;;;;;6.37;5.80;;;13.60;99.90;;;;;;5053863;28;20483;-80
2023/05/11 05:50:41;;;;;;;1.50;1.50;;;13.70;99.90;;;;;;5055197;28;20808;-80
2023/05/11 05:53:08;;;;;;;2.60;1.33;;;13.80;99.90;;;;;;5041407;28;20466;-80
2023/05/11 05:55:35;;;;;;;0.50;0.40;;;13.80;99.90;;;;;;5035912;28;20524;-80
2023/05/11 05:58:01;;;;;;;1.77;1.17;;;13.90;99.90;;;;;;5034294;28;20511;-80
2023/05/11 06:00:28;;;;;;;5.53;2.87;;;13.90;99.90;;;;;;5034266;28;20444;-79
2023/05/11 06:02:57;;;;;;;3.80;1.47;;;14.10;99.90;;;;;;5038348;28;20475;-81
2023/05/11 06:05:23;;;;;;;12.53;8.13;;;14.20;99.90;;;;;;5053962;28;20444;-80
2023/05/11 06:07:50;;;;;;;7.07;6.40;;;14.40;99.90;;;;;;5053365;28;20444;-80
2023/05/11 06:10:17;;;;;;;16.50;9.63;;;14.50;99.90;;;;;;5053603;28;20527;-81
2023/05/11 06:12:44;;;;;;;3.23;2.17;;;14.80;99.90;;;;;;5042486;28;20827;-80
2023/05/11 06:15:12;;;;;;;2.30;2.10;;;15.40;99.90;;;;;;5034230;28;20442;-77
2023/05/11 06:17:39;;;;;;;0.70;0.70;;;15.70;99.90;;;;;;5035576;28;20457;-81
2023/05/11 06:20:08;;;;;;;6.03;5.43;;;15.80;99.90;;;;;;5047727;28;20505;-80
2023/05/11 06:22:35;;;;;;;5.40;3.07;;;15.90;99.90;;;;;;5034250;28;20477;-81
2023/05/11 06:25:02;;;;;;;14.83;6.93;;;16.20;99.90;;;;;;5034331;28;20474;-81
2023/05/11 06:27:29;;;;;;;0.50;0.40;;;16.40;99.90;;;;;;5043672;28;20528;-80
2023/05/11 06:29:56;;;;;;;11.03;8.40;;;15.90;99.90;;;;;;5054920;28;20464;-81
2023/05/11 06:32:23;;;;;;;0.60;0.40;;;15.70;99.90;;;;;;5054946;28;20443;-82
2023/05/11 06:34:49;;;;;;;1.77;1.33;;;15.50;99.90;;;;;;5045988;28;20901;-79
2023/05/11 06:37:19;;;;;;;4.30;1.30;;;15.50;99.90;;;;;;5053644;28;20513;-80
2023/05/11 06:39:46;;;;;;;2.50;1.80;;;15.50;99.90;;;;;;5053662;28;20457;-76
2023/05/11 06:42:13;;;;;;;6.77;3.80;;;15.50;99.90;;;;;;5053486;28;20483;-79
2023/05/11 06:44:40;;;;;;;0.50;0.40;;;16.30;99.90;;;;;;5053690;28;20439;-81
2023/05/11 06:47:07;;;;;;;0.50;0.40;;;17.70;99.90;;;;;;5053852;28;20441;-81
2023/05/11 06:49:34;;;;;;;2.30;2.10;;;19.30;99.90;;;;;;5055018;28;20475;-81
2023/05/11 06:52:01;;;;;;;1.80;1.63;;;20.30;99.90;;;;;;5054894;28;20457;-80
2023/05/11 06:54:29;;;;;;;6.20;4.23;;;20.10;99.90;;;;;;5058281;28;20849;-81
2023/05/11 06:56:56;;;;;;;4.67;3.57;;;19.90;99.90;;;;;;5058963;28;20940;-79
2023/05/11 06:59:23;;;;;;;0.50;0.43;;;19.00;99.90;;;;;;5063551;28;20468;-81
2023/05/11 07:01:50;;;;;;;5.17;4.73;;;18.30;99.90;;;;;;5037078;28;20474;-78
2023/05/11 07:04:17;;;;;;;6.13;4.90;;;17.90;99.90;;;;;;5037268;28;20829;-81
2023/05/11 07:06:44;;;;;;;2.20;2.00;;;17.30;99.90;;;;;;5036282;28;20473;-81
2023/05/11 07:09:11;;;;;;;2.10;1.93;;;17.00;99.90;;;;;;5035032;28;20474;-81
2023/05/11 07:11:39;;;;;;;91.17;62.50;;;16.90;99.90;;;;;;5034564;28;20876;-80
2023/05/11 07:14:07;;;;;;;0.67;0.67;;;16.80;99.90;;;;;;5051166;28;20444;-80
2023/05/11 07:16:36;;;;;;;2.73;2.53;;;16.90;99.90;;;;;;5058501;28;20856;-81
2023/05/11 07:19:03;;;;;;;1.13;1.07;;;16.90;99.90;;;;;;5058755;28;20820;-81
2023/05/11 07:21:31;;;;;;;0.50;0.30;;;16.80;99.90;;;;;;5057365;28;20523;-81
2023/05/11 07:23:58;;;;;;;0.70;0.70;;;17.00;99.90;;;;;;5057533;28;20441;-81
2023/05/11 07:26:24;;;;;;;20.73;5.63;;;17.30;99.90;;;;;;5056903;28;20441;-80
2023/05/11 07:28:53;;;;;;;10.63;2.00;;;18.40;99.90;;;;;;5056820;28;20552;-80
2023/05/11 07:31:20;;;;;;;1.10;1.10;;;19.80;99.90;;;;;;5056704;28;20520;-81
2023/05/11 07:33:47;;;;;;;1.10;1.10;;;21.30;99.90;;;;;;5056311;28;20461;-81
2023/05/11 07:36:14;;;;;;;5.60;2.53;;;22.40;99.90;;;;;;5041684;28;20965;-81
2023/05/11 07:38:41;;;;;;;0.50;0.40;;;23.30;99.90;;;;;;5046288;28;20543;-81
2023/05/11 07:41:08;;;;;;;3.07;2.97;;;24.40;99.90;;;;;;5041731;28;20499;-77
2023/05/11 07:43:35;;;;;;;3.10;3.00;;;25.60;99.90;;;;;;5044373;28;20860;-81
2023/05/11 07:46:03;;;;;;;0.50;0.40;;;25.40;97.30;;;;;;5056595;28;20451;-80
2023/05/11 07:48:30;;;;;;;0.70;0.70;;;23.90;99.90;;;;;;5039526;28;20468;-79
2023/05/11 07:50:57;;;;;;;1.63;0.90;;;23.00;99.90;;;;;;5035902;28;20735;-80
2023/05/11 07:53:23;;;;;;;1.80;1.70;;;21.70;99.90;;;;;;5036053;28;20441;-80
2023/05/11 07:55:50;;;;;;;1.17;0.70;;;20.80;99.90;;;;;;5036642;28;20533;-80
2023/05/11 07:58:17;;;;;;;1.50;1.50;;;20.30;99.90;;;;;;5043294;28;20535;-80
2023/05/11 08:00:44;;;;;;;5.70;4.10;;;20.20;99.90;;;;;;5055865;28;20444;-80
2023/05/11 08:03:13;;;;;;;2.23;2.00;;;20.70;99.90;;;;;;5055805;28;20487;-81
2023/05/11 08:05:40;;;;;;;0.50;0.40;;;22.10;99.90;;;;;;5037627;28;20798;-80
2023/05/11 08:08:06;;;;;;;1.47;1.47;;;23.40;99.90;;;;;;5034982;28;20458;-80
2023/05/11 08:10:35;;;;;;;3.67;2.27;;;23.80;99.90;;;;;;5035372;28;20444;-79
2023/05/11 08:13:01;;;;;;;1.73;1.63;;;24.80;99.90;;;;;;5035247;28;20445;-80
2023/05/11 08:15:29;;;;;;;0.70;0.50;;;24.70;99.70;;;;;;5043572;28;20440;-79
2023/05/11 08:17:55;;;;;;;2.00;1.40;;;24.20;99.90;;;;;;5038671;28;20433;-80
2023/05/11 08:20:24;;;;;;;8.60;5.60;;;23.60;99.90;;;;;;5055802;28;20893;-80
2023/05/11 08:22:51;;;;;;;1.10;1.10;;;23.40;99.90;;;;;;5054424;28;21004;-80
2023/05/11 08:25:18;;;;;;;1.17;0.93;;;23.00;99.90;;;;;;5054699;28;20528;-79
2023/05/11 08:27:45;;;;;;;0.50;0.30;;;22.70;99.90;;;;;;5055311;28;20441;-80
2023/05/11 08:30:12;;;;;;;0.50;0.30;;;22.30;99.90;;;;;;5055114;28;20429;-80
2023/05/11 08:32:39;;;;;;;2.40;2.30;;;22.20;99.90;;;;;;5045509;28;20518;-80
2023/05/11 08:35:06;;;;;;;8.90;5.40;;;21.90;99.90;;;;;;5034832;28;20900;-80
2023/05/11 08:37:35;;;;;;;1.63;1.53;;;21.70;99.90;;;;;;5035139;28;20444;-80
2023/05/11 08:40:02;;;;;;;1.87;1.80;;;21.40;99.90;;;;;;5035232;28;20481;-80
2023/05/11 08:42:34;;;;;;;2.17;2.00;;;21.10;99.90;;;;;;5050815;28;20473;-79
2023/05/11 08:45:02;;;;;;;1.47;1.00;;;21.30;99.90;;;;;;5054996;28;20808;-80
2023/05/11 08:47:29;;;;;;;1.80;1.33;;;21.50;99.90;;;;;;5038363;28;20442;-80
2023/05/11 08:49:57;;;;;;;7.90;2.50;;;21.20;99.90;;;;;;5034823;28;21007;-81
2023/05/11 08:52:25;;;;;;;0.50;0.30;;;20.90;99.90;;;;;;5034091;28;20437;-78
2023/05/11 08:54:53;;;;;;;2.00;1.90;;;20.40;99.90;;;;;;5034989;28;20916;-81
2023/05/11 08:57:20;;;;;;;2.70;0.60;;;20.20;99.90;;;;;;5034775;28;20541;-79
2023/05/11 08:59:49;;;;;;;1.23;1.23;;;20.10;99.90;;;;;;5034687;28;20929;-76
2023/05/11 09:02:18;;;;;;;2.30;2.20;;;20.00;99.90;;;;;;5034600;28;20445;-79
2023/05/11 09:04:45;;;;;;;3.27;2.20;;;20.10;99.90;;;;;;5034809;28;20440;-80
2023/05/11 09:07:15;;;;;;;7.93;1.60;;;20.40;99.90;;;;;;5034876;28;20477;-80
2023/05/11 09:09:42;;;;;;;0.70;0.70;;;21.00;99.90;;;;;;5034396;28;20457;-80
2023/05/11 09:12:11;;;;;;;2.50;2.40;;;21.20;99.90;;;;;;5034646;28;20927;-80
2023/05/11 09:14:38;;;;;;;0.50;0.40;;;21.10;99.90;;;;;;5034096;28;20489;-80
2023/05/11 09:17:05;;;;;;;2.70;2.60;;;20.80;99.90;;;;;;5033968;28;20437;-79
2023/05/11 09:19:32;;;;;;;5.30;1.47;;;20.60;99.90;;;;;;5034792;28;20830;-79
2023/05/11 09:21:59;;;;;;;2.83;2.43;;;20.30;99.90;;;;;;5033449;28;20437;-78
2023/05/11 09:24:26;;;;;;;1.33;0.77;;;20.10;99.90;;;;;;5033965;28;20560;-80
2023/05/11 09:27:08;;;;;;;0.50;0.40;;;19.70;99.90;;;;;;5036198;28;20477;-80
2023/05/11 09:29:36;;;;;;;6.07;3.97;;;19.50;99.90;;;;;;5056314;28;20460;-78
2023/05/11 09:32:04;;;;;;;1.60;1.50;;;19.10;99.90;;;;;;5054849;28;20537;-79
2023/05/11 09:34:30;;;;;;;1.67;1.57;;;18.90;99.90;;;;;;5055208;28;20991;-80
2023/05/11 09:36:57;;;;;;;0.60;0.50;;;18.70;99.90;;;;;;5043564;28;20438;-77
2023/05/11 09:39:36;;;;;;;2.50;2.10;;;18.50;99.90;;;;;;5036551;28;20485;-78
2023/05/11 09:42:13;;;;;;;2.10;2.00;;;18.40;99.90;;;;;;5037308;28;20592;-80
2023/05/11 09:44:42;;;;;;;2.13;2.03;;;18.20;99.90;;;;;;5052712;28;20437;-79
2023/05/11 09:47:13;;;;;;;2.03;1.47;;;18.00;99.90;;;;;;5054059;28;20467;-79
2023/05/11 09:49:42;;;;;;;2.77;2.60;;;18.00;99.90;;;;;;5054738;28;20457;-77
2023/05/11 09:52:10;;;;;;;7.70;3.90;;;18.00;99.90;;;;;;5053893;28;20469;-80
2023/05/11 09:54:42;;;;;;;2.93;2.73;;;18.00;99.90;;;;;;5054354;28;20437;-78
2023/05/11 09:57:22;;;;;;;0.50;0.43;;;18.10;99.90;;;;;;5055968;28;20460;-80
2023/05/11 09:59:51;;;;;;;0.50;0.40;;;18.10;99.90;;;;;;5054562;28;20485;-80
2023/05/11 10:02:20;;;;;;;0.50;0.40;;;18.20;99.90;;;;;;5053954;28;20429;-79
2023/05/11 10:04:48;;;;;;;4.00;2.30;;;18.30;99.90;;;;;;5054867;28;20441;-81
2023/05/11 10:07:28;;;;;;;0.50;0.43;;;18.20;99.90;;;;;;5042751;28;20793;-81
2023/05/11 10:09:57;;;;;;;2.00;1.80;;;18.00;99.90;;;;;;5053192;28;20492;-81
2023/05/11 10:12:26;;;;;;;0.93;0.93;;;18.00;99.90;;;;;;5053148;28;20440;-80
2023/05/11 10:14:55;;;;;;;5.90;1.50;;;17.90;99.90;;;;;;5053591;28;20429;-80
2023/05/11 10:17:23;;;;;;;0.50;0.37;;;17.70;99.90;;;;;;5053817;28;20437;-81
2023/05/11 10:19:50;;;;;;;1.43;1.33;;;17.50;99.90;;;;;;5053218;28;20556;-77
2023/05/11 10:22:17;;;;;;;1.17;1.13;;;17.40;99.90;;;;;;5053297;28;20441;-80
2023/05/11 10:24:44;;;;;;;2.20;2.00;;;17.30;99.90;;;;;;5053473;28;20473;-81
2023/05/11 10:27:12;;;;;;;2.10;1.13;;;17.30;99.90;;;;;;5053678;28;20433;-80
2023/05/11 10:29:39;;;;;;;5.40;4.37;;;17.20;99.90;;;;;;5045124;28;20537;-79
2023/05/11 10:32:08;;;;;;;1.33;1.33;;;17.10;99.90;;;;;;5046026;28;20429;-80
2023/05/11 10:34:38;;;;;;;0.50;0.40;;;17.00;99.90;;;;;;5043229;28;20438;-79
2023/05/11 10:37:05;;;;;;;5.60;2.63;;;17.00;99.90;;;;;;5047274;28;21031;-80
2023/05/11 10:39:33;;;;;;;3.70;2.10;;;17.10;99.90;;;;;;5045197;28;20457;-79
2023/05/11 10:42:17;;;;;;;0.50;0.40;;;17.10;99.90;;;;;;5042118;28;20445;-79
2023/05/11 10:45:05;;;;;;;0.80;0.60;;;16.90;99.90;;;;;;5041798;28;20564;-79
2023/05/11 10:48:06;;;;;;;2.93;2.73;;;16.90;99.90;;;;;;5042408;28;20469;-80
2023/05/11 10:50:44;;;;;;;5.07;3.37;;;16.80;99.90;;;;;;5049620;28;20941;-81
2023/05/11 10:53:24;;;;;;;0.50;0.40;;;16.80;99.90;;;;;;5043560;28;20432;-79
2023/05/11 10:56:26;;;;;;;1.37;0.80;;;16.80;99.90;;;;;;5040959;28;20442;-81
2023/05/11 10:59:20;;;;;;;0.50;0.30;;;16.80;99.90;;;;;;5027496;28;20470;-78
2023/05/11 11:01:50;;;;;;;0.83;0.83;;;16.80;99.90;;;;;;5045697;28;20441;-79
2023/05/11 11:04:19;;;;;;;3.10;3.00;;;16.60;99.90;;;;;;5051215;28;20476;-79
2023/05/11 11:06:46;;;;;;;0.60;0.57;;;16.60;99.90;;;;;;5057106;28;20524;-81
2023/05/11 11:09:14;;;;;;;1.07;1.03;;;16.70;99.90;;;;;;5050109;28;20543;-80
2023/05/11 11:11:44;;;;;;;1.03;0.93;;;16.60;99.90;;;;;;5049142;28;20472;-80
2023/05/11 11:14:13;;;;;;;0.50;0.40;;;16.60;99.90;;;;;;5042405;28;20429;-82
2023/05/11 11:16:41;;;;;;;0.60;0.50;;;16.60;99.90;;;;;;5059794;28;20531;-81
2023/05/11 11:19:38;;;;;;;6.33;3.13;;;16.60;99.90;;;;;;5039959;28;20467;-80
2023/05/11 11:22:05;;;;;;;7.83;5.30;;;16.70;99.90;;;;;;5058257;28;20436;-81
2023/05/11 11:24:46;;;;;;;4.10;1.47;;;16.80;99.90;;;;;;5050711;28;20481;-81
2023/05/11 11:27:13;;;;;;;1.30;1.30;;;16.80;99.90;;;;;;5049329;28;20428;-81
2023/05/11 11:29:40;;;;;;;5.23;3.20;;;16.80;99.90;;;;;;5049711;28;20456;-81
2023/05/11 11:32:27;;;;;;;1.07;0.80;;;16.80;99.90;;;;;;5046124;28;20442;-80
2023/05/11 11:34:55;;;;;;;0.60;0.60;;;16.80;99.90;;;;;;5039645;28;20434;-81
2023/05/11 11:37:22;;;;;;;0.50;0.50;;;16.80;99.90;;;;;;5048873;28;20531;-80
2023/05/11 11:40:03;;;;;;;0.90;0.80;;;16.70;99.90;;;;;;5047998;28;20466;-79
2023/05/11 11:42:37;;;;;;;0.60;0.50;;;16.80;99.90;;;;;;5045882;28;20445;-81
2023/05/11 11:45:32;;;;;;;3.57;3.37;;;16.90;99.90;;;;;;5037604;28;20465;-80
2023/05/11 11:48:15;;;;;;;0.60;0.60;;;16.80;99.90;;;;;;5037232;28;20460;-80
2023/05/11 11:50:46;;;;;;;1.77;1.67;;;16.90;99.90;;;;;;5053804;28;21111;-82
2023/05/11 11:54:04;;;;;;;0.63;0.60;;;16.90;99.90;;;;;;5046405;28;20444;-80
2023/05/11 11:56:44;;;;;;;0.50;0.40;;;17.00;99.90;;;;;;5032734;28;20584;-80
2023/05/11 11:59:13;;;;;;;0.50;0.30;;;17.10;99.90;;;;;;5029216;28;20473;-81
2023/05/11 12:01:42;;;;;;;0.50;0.50;;;17.20;99.90;;;;;;5037278;28;20933;-81
2023/05/11 12:04:38;;;;;;;1.47;1.37;;;17.30;99.90;;;;;;5037559;28;20486;-82
2023/05/11 12:07:10;;;;;;;2.40;2.20;;;17.30;99.90;;;;;;5045161;28;20949;-78
2023/05/11 12:09:38;;;;;;;3.00;2.80;;;17.30;99.90;;;;;;5037237;28;20469;-81
2023/05/11 12:12:08;;;;;;;0.50;0.40;;;17.40;99.90;;;;;;5045304;28;20438;-81
2023/05/11 12:14:35;;;;;;;2.70;2.60;;;17.50;99.90;;;;;;5043903;28;20439;-82
2023/05/11 12:17:14;;;;;;;0.50;0.33;;;17.50;99.90;;;;;;5039748;28;20442;-82
2023/05/11 12:19:42;;;;;;;0.60;0.60;;;17.60;99.90;;;;;;5048533;28;20507;-81
2023/05/11 12:22:13;;;;;;;0.50;0.40;;;17.70;99.90;;;;;;5036384;28;21005;-81
2023/05/11 12:24:41;;;;;;;0.50;0.40;;;17.80;99.90;;;;;;5044165;28;20473;-82
2023/05/11 12:27:08;;;;;;;21.07;2.27;;;18.00;99.90;;;;;;5052606;28;20445;-80
2023/05/11 12:29:35;;;;;;;0.50;0.50;;;18.10;99.90;;;;;;5044760;28;20527;-81
2023/05/11 12:32:01;;;;;;;2.10;2.00;;;18.30;99.90;;;;;;5047354;28;20500;-81
2023/05/11 12:34:28;;;;;;;0.83;0.83;;;18.40;99.90;;;;;;5042369;28;20517;-82
2023/05/11 12:36:55;;;;;;;3.43;0.77;;;18.80;99.90;;;;;;5045997;28;20528;-81
2023/05/11 12:39:25;;;;;;;0.63;0.63;;;19.20;99.90;;;;;;5050705;28;20849;-80
2023/05/11 12:41:53;;;;;;;0.73;0.73;;;19.70;99.90;;;;;;5043840;28;20523;-81
2023/05/11 12:44:22;;;;;;;0.50;0.30;;;20.00;99.90;;;;;;5043534;28;20572;-82
2023/05/11 12:46:50;;;;;;;1.03;0.73;;;20.50;99.90;;;;;;5044080;28;20445;-80
2023/05/11 12:49:18;;;;;;;0.60;0.50;;;20.90;99.90;;;;;;5043254;28;20468;-82
2023/05/11 12:51:49;;;;;;;1.17;1.00;;;21.20;99.90;;;;;;5051844;28;20433;-82
2023/05/11 12:54:29;;;;;;;0.60;0.53;;;20.90;99.90;;;;;;5032212;28;20433;-80
2023/05/11 12:56:56;;;;;;;1.23;1.23;;;21.40;99.90;;;;;;5038977;28;20442;-81